Time;durP1;ratioP1;P1;durP2;ratioP2;P2;SDS_P1;SDS_P2;PMS_P1;PMS_P2;Temp;Humidity;BMP_temperature;BMP_pressure;BME280_temperature;BME280_humidity;BME280_pressure;Samples;Min_cycle;Max_cycle;Signal;HPM_P1;HPM_P2
2023/06/05 00:01:36;;;;;;;;;8.67;8.67;;;;;16.89;61.57;101853.03;5076971;28;46511;-77
2023/06/05 00:04:03;;;;;;;;;12.33;10.33;;;;;16.93;61.50;101851.13;5077072;28;45261;-77
2023/06/05 00:06:28;;;;;;;;;12.67;9.00;;;;;16.92;60.80;101860.03;5076947;27;45429;-76
2023/06/05 00:08:53;;;;;;;;;10.67;8.33;;;;;16.90;62.05;101856.56;5077335;27;45315;-78
2023/06/05 00:11:19;;;;;;;;;10.33;8.33;;;;;16.84;62.92;101858.44;5076611;27;47284;-77
2023/06/05 00:13:45;;;;;;;;;8.00;8.00;;;;;16.82;61.73;101847.00;5076622;27;45395;-78
2023/06/05 00:16:11;;;;;;;;;10.00;9.00;;;;;16.79;62.25;101860.41;5077188;27;45408;-78
2023/06/05 00:18:37;;;;;;;;;9.33;8.33;;;;;16.75;63.47;101853.44;5077035;27;45264;-78
2023/06/05 00:21:03;;;;;;;;;10.67;9.67;;;;;16.73;63.40;101846.41;5076623;27;46555;-79
2023/06/05 00:23:29;;;;;;;;;11.00;8.33;;;;;16.70;62.39;101848.25;5076361;27;45293;-78
2023/06/05 00:25:54;;;;;;;;;13.67;10.67;;;;;16.69;63.57;101846.50;5076732;27;45372;-79
2023/06/05 00:28:20;;;;;;;;;11.00;9.67;;;;;16.67;63.64;101847.47;5077227;27;45223;-75
2023/06/05 00:30:45;;;;;;;;;10.67;10.67;;;;;16.65;63.05;101846.66;5076514;27;45595;-76
2023/06/05 00:33:11;;;;;;;;;13.33;9.00;;;;;16.58;63.36;101839.78;5076857;27;45276;-77
2023/06/05 00:35:36;;;;;;;;;10.00;9.33;;;;;16.61;63.68;101847.66;5073884;27;45401;-77
2023/06/05 00:38:02;;;;;;;;;11.00;11.00;;;;;16.60;63.60;101841.47;5073735;27;45357;-77
2023/06/05 00:40:27;;;;;;;;;9.67;7.67;;;;;16.54;64.01;101836.31;5076599;27;46052;-77
2023/06/05 00:42:52;;;;;;;;;11.00;10.67;;;;;16.58;64.00;101842.44;5076492;27;45423;-78
2023/06/05 00:45:18;;;;;;;;;11.00;8.67;;;;;16.58;63.79;101850.41;5076302;27;45735;-78
2023/06/05 00:47:43;;;;;;;;;15.67;11.00;;;;;16.48;64.48;101836.50;5073829;28;45605;-78
2023/06/05 00:50:12;;;;;;;;;10.33;10.33;;;;;16.49;62.88;101841.78;5076101;27;45938;-79
2023/06/05 00:52:39;;;;;;;;;13.00;11.00;;;;;16.39;65.10;101834.16;5077217;27;45401;-77
2023/06/05 00:55:06;;;;;;;;;18.00;10.67;;;;;16.45;64.50;101841.94;5077205;27;45401;-78
2023/06/05 00:57:34;;;;;;;;;16.67;10.33;;;;;16.40;64.71;101831.44;5077352;27;45362;-78
2023/06/05 01:00:01;;;;;;;;;11.33;10.33;;;;;16.26;64.42;101809.72;5076975;27;47043;-77
2023/06/05 01:02:28;;;;;;;;;13.33;9.67;;;;;16.36;64.67;101833.28;5076828;27;45342;-77
2023/06/05 01:04:56;;;;;;;;;10.00;10.00;;;;;16.43;64.47;101847.28;5076934;27;45230;-78
2023/06/05 01:07:22;;;;;;;;;11.67;10.00;;;;;16.40;64.53;101835.91;5077159;27;45378;-78
2023/06/05 01:09:47;;;;;;;;;10.67;10.00;;;;;16.31;64.70;101829.94;5076752;28;46341;-77
2023/06/05 01:12:28;;;;;;;;;14.67;11.33;;;;;16.39;64.41;101835.00;5076827;27;45404;-79
2023/06/05 01:14:58;;;;;;;;;13.00;13.00;;;;;16.34;64.63;101829.84;5076643;27;45329;-77
2023/06/05 01:17:28;;;;;;;;;11.33;10.00;;;;;16.08;63.99;101790.72;5077081;27;45490;-78
2023/06/05 01:19:54;;;;;;;;;14.33;10.67;;;;;16.28;64.97;101831.78;5076873;27;46281;-78
2023/06/05 01:22:20;;;;;;;;;11.33;10.33;;;;;16.29;65.32;101834.41;5076765;28;45155;-76
2023/06/05 01:24:47;;;;;;;;;15.00;10.67;;;;;16.24;64.31;101827.50;5076885;27;45458;-78
2023/06/05 01:27:24;;;;;;;;;19.67;13.67;;;;;16.19;63.68;101823.19;5077372;27;46162;-77
2023/06/05 01:30:09;;;;;;;;;18.67;13.33;;;;;16.22;64.32;101831.97;5076113;27;45422;-78
2023/06/05 01:32:44;;;;;;;;;13.33;10.67;;;;;16.17;65.56;101829.44;5076529;27;45347;-79
2023/06/05 01:35:10;;;;;;;;;14.67;12.00;;;;;16.14;65.32;101832.19;5079344;27;45336;-78
2023/06/05 01:37:46;;;;;;;;;14.00;14.00;;;;;16.04;64.96;101830.72;5079910;27;45473;-79
2023/06/05 01:40:14;;;;;;;;;12.33;11.67;;;;;16.02;65.70;101841.41;5079104;27;46458;-79
2023/06/05 01:42:41;;;;;;;;;12.33;12.33;;;;;15.94;65.98;101825.66;5079730;27;45242;-78
2023/06/05 01:45:08;;;;;;;;;17.33;11.67;;;;;15.93;65.76;101829.25;5080237;27;45243;-78
2023/06/05 01:47:36;;;;;;;;;17.00;14.00;;;;;15.88;66.11;101831.13;5079999;27;45625;-78
2023/06/05 01:50:01;;;;;;;;;14.33;13.00;;;;;15.88;66.44;101828.47;5079772;27;46058;-78
2023/06/05 01:52:27;;;;;;;;;12.00;11.00;;;;;15.84;66.22;101819.75;5079747;27;46191;-78
2023/06/05 01:54:53;;;;;;;;;16.00;14.33;;;;;15.90;65.36;101828.44;5080100;27;45932;-79
2023/06/05 01:57:18;;;;;;;;;13.33;10.67;;;;;15.88;65.40;101827.63;5079958;27;45468;-78
2023/06/05 01:59:45;;;;;;;;;9.00;9.00;;;;;15.79;65.76;101815.47;5079589;27;46350;-78
2023/06/05 02:02:11;;;;;;;;;9.67;9.67;;;;;15.81;64.22;101827.81;5079623;27;45309;-78
2023/06/05 02:04:37;;;;;;;;;16.00;13.00;;;;;15.72;66.31;101816.50;5080231;27;45352;-78
2023/06/05 02:07:05;;;;;;;;;14.67;13.33;;;;;15.72;65.87;101813.84;5079774;27;45582;-78
2023/06/05 02:09:33;;;;;;;;;13.00;12.67;;;;;15.76;65.36;101829.66;5079256;27;46572;-78
2023/06/05 02:12:03;;;;;;;;;15.67;11.67;;;;;15.74;66.18;101827.94;5078873;27;45243;-78
2023/06/05 02:14:31;;;;;;;;;15.00;14.00;;;;;15.70;65.48;101828.94;5079579;27;45336;-78
2023/06/05 02:16:58;;;;;;;;;17.67;13.00;;;;;15.69;66.52;101829.88;5079800;27;45361;-80
2023/06/05 02:19:23;;;;;;;;;16.00;14.00;;;;;15.62;66.49;101815.88;5078160;28;45437;-78
2023/06/05 02:21:51;;;;;;;;;13.67;13.67;;;;;15.63;65.89;101815.84;5079170;27;45538;-78
2023/06/05 02:24:18;;;;;;;;;13.33;11.67;;;;;15.62;66.07;101814.09;5079390;27;45538;-79
2023/06/05 02:26:44;;;;;;;;;16.00;11.33;;;;;15.61;66.22;101815.03;5079407;27;45373;-78
2023/06/05 02:29:09;;;;;;;;;13.33;10.67;;;;;15.61;66.20;101814.13;5079206;28;45405;-79
2023/06/05 02:31:36;;;;;;;;;11.00;11.00;;;;;15.58;66.46;101815.09;5079254;27;45477;-78
2023/06/05 02:34:02;;;;;;;;;17.00;14.33;;;;;15.61;66.17;101820.34;5079336;28;45233;-78
2023/06/05 02:36:32;;;;;;;;;16.33;12.33;;;;;15.54;66.55;101828.47;5079448;27;45389;-77
2023/06/05 02:38:58;;;;;;;;;14.67;12.00;;;;;15.55;66.63;101824.91;5078533;27;47494;-78
2023/06/05 02:41:23;;;;;;;;;16.00;14.67;;;;;15.43;66.20;101808.41;5079103;27;45326;-78
2023/06/05 02:43:49;;;;;;;;;17.67;14.67;;;;;15.47;66.33;101818.03;5079333;27;45463;-78
2023/06/05 02:46:14;;;;;;;;;17.33;16.00;;;;;15.50;66.21;101830.34;5078944;27;45309;-79
2023/06/05 02:48:40;;;;;;;;;15.00;13.00;;;;;15.39;66.68;101817.34;5079054;27;47104;-76
2023/06/05 02:51:06;;;;;;;;;18.00;16.33;;;;;15.43;66.49;101831.44;5077791;27;45710;-78
2023/06/05 02:53:32;;;;;;;;;15.67;14.67;;;;;15.42;65.21;101821.72;5073987;27;45404;-77
2023/06/05 02:55:59;;;;;;;;;20.67;16.00;;;;;15.30;66.37;101809.63;5059032;28;45390;-78
2023/06/05 02:58:24;;;;;;;;;16.33;16.33;;;;;15.25;66.55;101799.13;5058567;28;45233;-78
2023/06/05 03:00:50;;;;;;;;;14.00;13.67;;;;;15.28;66.77;101809.66;5058650;28;45327;-77
2023/06/05 03:03:16;;;;;;;;;16.00;15.00;;;;;15.29;67.11;101810.53;5069869;28;45354;-78
2023/06/05 03:05:44;;;;;;;;;13.67;11.33;;;;;15.24;67.18;101807.13;5079007;27;45163;-77
2023/06/05 03:08:10;;;;;;;;;17.00;14.00;;;;;15.29;67.28;101813.19;5078643;27;45460;-77
2023/06/05 03:10:35;;;;;;;;;15.67;15.67;;;;;15.26;67.63;101815.91;5078600;27;45336;-78
2023/06/05 03:13:01;;;;;;;;;20.00;17.33;;;;;15.21;68.02;101810.72;5078352;27;45337;-77
2023/06/05 03:15:27;;;;;;;;;20.67;16.00;;;;;14.93;66.88;101768.97;5078998;27;45292;-78
2023/06/05 03:17:53;;;;;;;;;26.33;18.33;;;;;15.01;68.18;101797.97;5078060;27;47062;-77
2023/06/05 03:20:19;;;;;;;;;21.33;19.67;;;;;15.05;67.65;101802.28;5077879;27;45389;-78
2023/06/05 03:22:45;;;;;;;;;20.67;16.67;;;;;15.09;67.68;101811.06;5078506;27;45486;-77
2023/06/05 03:25:10;;;;;;;;;16.00;14.33;;;;;15.00;67.64;101804.16;5078646;27;45328;-77
2023/06/05 03:27:36;;;;;;;;;19.33;16.67;;;;;15.03;68.32;101817.38;5078140;27;46313;-77
2023/06/05 03:30:02;;;;;;;;;16.00;14.00;;;;;14.96;68.09;101803.38;5078416;28;45535;-78
2023/06/05 03:32:27;;;;;;;;;22.67;20.00;;;;;15.00;68.59;101804.16;5078299;27;45240;-77
2023/06/05 03:34:53;;;;;;;;;17.00;17.00;;;;;14.96;68.76;101803.38;5078564;27;45421;-78
2023/06/05 03:37:18;;;;;;;;;19.00;16.67;;;;;15.01;68.88;101803.25;5077880;27;45647;-78
2023/06/05 03:39:43;;;;;;;;;14.00;14.00;;;;;14.96;68.97;101803.38;5077907;27;45430;-78
2023/06/05 03:42:10;;;;;;;;;21.33;18.67;;;;;14.97;68.32;101805.13;5078223;27;45394;-79
2023/06/05 03:44:36;;;;;;;;;18.67;17.67;;;;;14.89;68.68;101793.81;5078658;27;45258;-77
2023/06/05 03:47:02;;;;;;;;;23.67;21.00;;;;;14.88;68.60;101800.03;5077893;27;46036;-78
2023/06/05 03:49:28;;;;;;;;;19.33;15.33;;;;;14.92;69.38;101807.00;5077856;27;45361;-78
2023/06/05 03:52:03;;;;;;;;;24.00;20.67;;;;;14.92;68.53;101795.53;5068774;27;45407;-77
2023/06/05 03:54:32;;;;;;;;;18.33;15.33;;;;;14.95;69.05;101798.97;5060084;28;45216;-78
2023/06/05 03:57:00;;;;;;;;;17.33;15.67;;;;;14.87;68.90;101785.06;5076979;27;46177;-78
2023/06/05 03:59:27;;;;;;;;;14.67;14.00;;;;;14.93;69.00;101802.59;5077975;27;45424;-76
2023/06/05 04:01:53;;;;;;;;;20.00;17.00;;;;;14.89;68.91;101793.81;5077327;27;45467;-78
2023/06/05 04:04:20;;;;;;;;;20.33;17.67;;;;;14.90;68.13;101792.03;5078287;28;45304;-77
2023/06/05 04:06:45;;;;;;;;;20.33;18.67;;;;;14.94;68.58;101794.59;5070877;27;45404;-77
2023/06/05 04:09:11;;;;;;;;;19.00;17.33;;;;;14.95;68.72;101806.06;5072925;28;45268;-77
2023/06/05 04:11:39;;;;;;;;;21.00;17.67;;;;;14.94;68.97;101797.25;5076998;27;45451;-77
2023/06/05 04:14:04;;;;;;;;;20.00;17.33;;;;;14.97;69.02;101799.81;5076745;27;45413;-76
2023/06/05 04:16:30;;;;;;;;;19.67;16.67;;;;;14.97;68.87;101798.94;5076505;27;46528;-75
2023/06/05 04:18:56;;;;;;;;;15.67;14.67;;;;;14.97;68.91;101801.59;5077764;28;45808;-76
2023/06/05 04:21:21;;;;;;;;;16.67;14.67;;;;;14.94;68.75;101789.31;5077647;27;45456;-75
2023/06/05 04:23:46;;;;;;;;;16.00;15.00;;;;;14.94;67.91;101785.75;5077715;27;45475;-76
2023/06/05 04:26:13;;;;;;;;;22.33;20.33;;;;;15.03;69.23;101803.22;5075581;27;45581;-76
2023/06/05 04:28:39;;;;;;;;;24.00;19.33;;;;;14.99;68.95;101794.47;5076134;28;45471;-75
2023/06/05 04:31:04;;;;;;;;;22.00;19.00;;;;;15.05;69.22;101799.63;5076869;27;45214;-75
2023/06/05 04:33:29;;;;;;;;;20.67;17.67;;;;;15.07;69.13;101803.09;5075890;27;45525;-75
2023/06/05 04:35:55;;;;;;;;;20.67;17.33;;;;;15.10;67.81;101810.13;5077609;27;46709;-78
2023/06/05 04:38:21;;;;;;;;;16.33;16.00;;;;;15.05;67.67;101806.72;5077385;27;45380;-76
2023/06/05 04:40:48;;;;;;;;;18.67;16.33;;;;;15.06;69.11;101809.34;5075985;27;45217;-75
2023/06/05 04:43:14;;;;;;;;;20.33;18.33;;;;;15.01;69.14;101808.56;5058934;27;45393;-76
2023/06/05 04:45:40;;;;;;;;;17.33;16.00;;;;;15.02;68.79;101799.72;5060917;28;46256;-76
2023/06/05 04:48:05;;;;;;;;;21.67;18.33;;;;;15.10;68.84;101811.00;5075012;27;45661;-76
2023/06/05 04:50:31;;;;;;;;;18.00;16.67;;;;;15.21;69.23;101823.13;5076052;27;45368;-75
2023/06/05 04:52:56;;;;;;;;;21.00;18.67;;;;;15.21;68.82;101817.84;5063961;27;45570;-75
2023/06/05 04:55:22;;;;;;;;;19.67;17.33;;;;;15.25;68.23;101828.31;5077213;27;45328;-75
2023/06/05 04:57:48;;;;;;;;;22.67;17.67;;;;;15.14;68.38;101802.03;5077107;27;45431;-76
2023/06/05 05:00:14;;;;;;;;;19.00;18.67;;;;;15.24;68.10;101818.63;5077278;27;45266;-76
2023/06/05 05:02:40;;;;;;;;;28.33;19.33;;;;;15.31;67.92;101822.00;5077091;27;45229;-76
2023/06/05 05:05:06;;;;;;;;;17.33;17.33;;;;;15.25;68.25;101812.41;5077014;27;45912;-75
2023/06/05 05:07:32;;;;;;;;;21.67;20.67;;;;;15.36;68.60;101822.72;5077266;27;45836;-76
2023/06/05 05:09:58;;;;;;;;;27.00;18.67;;;;;15.42;68.00;101827.91;5080697;27;45264;-76
2023/06/05 05:12:23;;;;;;;;;19.00;19.00;;;;;15.48;67.90;101833.06;5080672;27;45409;-76
2023/06/05 05:14:48;;;;;;;;;20.33;20.33;;;;;15.45;68.01;101813.66;5080297;27;46239;-76
2023/06/05 05:17:16;;;;;;;;;22.00;18.67;;;;;15.51;67.85;101821.50;5079616;27;45427;-76
2023/06/05 05:19:42;;;;;;;;;20.67;18.67;;;;;15.60;67.35;101836.31;5064081;28;45465;-77
2023/06/05 05:22:08;;;;;;;;;23.00;17.00;;;;;15.54;67.39;101815.22;5060311;28;45363;-76
2023/06/05 05:24:33;;;;;;;;;22.67;21.00;;;;;15.69;67.52;101835.19;5059836;28;46352;-76
2023/06/05 05:26:58;;;;;;;;;21.00;18.00;;;;;15.73;66.90;101832.41;5060252;28;45321;-77
2023/06/05 05:29:23;;;;;;;;;18.33;17.00;;;;;15.67;66.95;101821.97;5060269;28;45243;-76
2023/06/05 05:31:50;;;;;;;;;18.33;17.33;;;;;15.63;67.60;101818.50;5060435;28;45234;-76
2023/06/05 05:34:16;;;;;;;;;21.33;18.67;;;;;15.79;66.67;101823.44;5059815;28;46386;-75
2023/06/05 05:36:41;;;;;;;;;20.33;17.67;;;;;15.78;66.54;101827.84;5059895;28;45164;-76
2023/06/05 05:39:07;;;;;;;;;20.67;19.00;;;;;15.71;66.82;101801.47;5059743;28;45314;-76
2023/06/05 05:41:33;;;;;;;;;16.67;16.33;;;;;15.93;66.17;101833.66;5060149;28;45232;-76
2023/06/05 05:43:58;;;;;;;;;20.67;15.00;;;;;16.02;66.54;101841.41;5059719;28;45593;-76
2023/06/05 05:46:24;;;;;;;;;20.00;18.67;;;;;16.07;66.51;101841.25;5059776;28;45346;-76
2023/06/05 05:48:49;;;;;;;;;20.00;17.67;;;;;16.07;66.34;101827.97;5059894;28;45309;-76
2023/06/05 05:51:15;;;;;;;;;23.67;18.00;;;;;16.16;65.90;101833.00;5059821;28;45475;-76
2023/06/05 05:53:40;;;;;;;;;17.00;14.00;;;;;16.17;65.54;101830.31;5069365;28;47074;-76
2023/06/05 05:56:05;;;;;;;;;17.00;16.67;;;;;16.16;65.53;101823.28;5080058;27;45450;-76
2023/06/05 05:58:31;;;;;;;;;18.67;16.00;;;;;16.30;65.61;101841.47;5060332;27;45334;-75
2023/06/05 06:00:59;;;;;;;;;19.00;17.33;;;;;16.21;65.36;101819.59;5062927;28;45333;-76
2023/06/05 06:03:26;;;;;;;;;13.33;13.33;;;;;16.41;64.58;101845.59;5078751;27;45455;-75
2023/06/05 06:05:52;;;;;;;;;21.67;15.33;;;;;16.40;64.76;101841.22;5079487;27;45336;-76
2023/06/05 06:08:18;;;;;;;;;21.00;20.00;;;;;16.48;64.93;101848.03;5079614;27;45371;-76
2023/06/05 06:10:43;;;;;;;;;17.33;13.67;;;;;16.57;64.10;101846.91;5079884;27;45357;-76
2023/06/05 06:13:10;;;;;;;;;18.67;15.67;;;;;16.61;63.26;101845.84;5079433;27;45598;-77
2023/06/05 06:15:38;;;;;;;;;16.67;11.67;;;;;16.65;63.94;101851.97;5079395;27;45292;-77
2023/06/05 06:18:05;;;;;;;;;13.33;8.67;;;;;16.68;63.22;101850.06;5079597;27;45281;-76
2023/06/05 06:20:31;;;;;;;;;16.67;16.67;;;;;16.63;64.07;101852.00;5079016;27;45687;-77
2023/06/05 06:22:56;;;;;;;;;18.67;18.33;;;;;16.60;64.34;101846.78;5079155;27;45404;-77
2023/06/05 06:25:25;;;;;;;;;16.00;14.67;;;;;16.64;63.65;101845.78;5079624;27;45450;-77
2023/06/05 06:27:53;;;;;;;;;17.67;17.00;;;;;16.68;63.77;101842.09;5079547;27;45333;-76
2023/06/05 06:30:19;;;;;;;;;17.33;13.33;;;;;16.71;63.50;101835.81;5078628;27;45421;-76
2023/06/05 06:32:45;;;;;;;;;19.67;15.67;;;;;16.81;63.08;101844.38;5059709;27;46514;-78
2023/06/05 06:35:12;;;;;;;;;15.00;13.33;;;;;16.86;62.75;101845.09;5059003;28;45234;-75
2023/06/05 06:37:37;;;;;;;;;16.00;11.67;;;;;16.78;63.21;101840.03;5058829;28;45369;-76
2023/06/05 06:40:08;;;;;;;;;15.33;13.67;;;;;16.79;63.29;101848.88;5059099;28;45417;-75
2023/06/05 06:42:34;;;;;;;;;15.33;15.00;;;;;16.86;62.36;101848.66;5058699;28;47343;-75
2023/06/05 06:44:59;;;;;;;;;16.33;15.33;;;;;16.73;62.76;101819.81;5058703;28;45488;-75
2023/06/05 06:47:25;;;;;;;;;19.33;16.67;;;;;16.91;62.21;101843.22;5058869;28;45317;-76
2023/06/05 06:49:51;;;;;;;;;20.67;14.67;;;;;16.80;62.66;101827.56;5059054;28;45448;-76
2023/06/05 06:52:18;;;;;;;;;15.67;12.33;;;;;17.09;61.89;101857.69;5058682;28;46522;-75
2023/06/05 06:54:44;;;;;;;;;17.33;13.00;;;;;17.15;62.13;101860.19;5058558;28;45356;-75
2023/06/05 06:57:09;;;;;;;;;13.67;12.67;;;;;17.27;61.71;101868.66;5058646;28;45439;-76
2023/06/05 06:59:35;;;;;;;;;14.00;13.00;;;;;17.31;61.22;101863.22;5059030;28;45347;-75
2023/06/05 07:02:18;;;;;;;;;13.33;13.33;;;;;17.37;61.03;101855.03;5058249;28;46222;-75
2023/06/05 07:04:44;;;;;;;;;16.67;14.67;;;;;17.55;61.24;101857.97;5060723;28;45459;-75
2023/06/05 07:07:14;;;;;;;;;16.33;14.00;;;;;17.74;60.61;101856.41;5078841;27;45582;-75
2023/06/05 07:09:45;;;;;;;;;13.33;13.33;;;;;17.83;59.73;101862.34;5061607;27;45357;-75
2023/06/05 07:12:15;;;;;;;;;17.33;13.67;;;;;17.95;60.02;101861.06;5057863;28;46476;-75
2023/06/05 07:14:41;;;;;;;;;12.33;12.33;;;;;18.17;59.28;101861.19;5058286;28;45223;-74
2023/06/05 07:17:06;;;;;;;;;11.67;10.33;;;;;18.71;58.26;101862.66;5058374;28;45388;-75
2023/06/05 07:19:33;;;;;;;;;10.33;9.33;;;;;20.01;55.14;101854.66;5058592;28;45243;-75
2023/06/05 07:22:01;;;;;;;;;17.33;14.33;;;;;20.33;53.19;101869.25;5058345;28;46193;-74
2023/06/05 07:24:30;;;;;;;;;15.33;13.67;;;;;20.24;53.20;101868.78;5058012;28;45328;-74
2023/06/05 07:27:00;;;;;;;;;15.00;13.33;;;;;19.97;52.98;101861.94;5058336;28;45396;-75
2023/06/05 07:29:26;;;;;;;;;16.33;14.00;;;;;20.20;53.22;101859.16;5058451;28;45323;-74
2023/06/05 07:31:53;;;;;;;;;12.67;12.67;;;;;20.10;53.05;101872.97;5056535;28;46545;-75
2023/06/05 07:34:20;;;;;;;;;14.67;13.33;;;;;19.92;53.57;101866.63;5058061;28;45193;-75
2023/06/05 07:36:47;;;;;;;;;21.00;13.33;;;;;19.71;53.93;101868.41;5071574;27;45251;-75
2023/06/05 07:39:15;;;;;;;;;17.33;14.33;;;;;19.53;54.00;101872.72;5068729;27;45321;-76
2023/06/05 07:41:41;;;;;;;;;15.00;13.33;;;;;19.40;54.48;101866.16;5061065;28;45468;-76
2023/06/05 07:44:09;;;;;;;;;16.67;13.67;;;;;19.37;54.83;101874.31;5057527;28;45341;-75
2023/06/05 07:46:34;;;;;;;;;14.67;10.67;;;;;19.11;54.47;101831.75;5058124;28;45227;-75
2023/06/05 07:49:00;;;;;;;;;16.00;15.33;;;;;19.25;54.91;101863.19;5058000;28;45301;-76
2023/06/05 07:51:26;;;;;;;;;16.00;13.00;;;;;19.21;54.92;101855.38;5057784;28;45693;-76
2023/06/05 07:53:51;;;;;;;;;15.00;13.67;;;;;19.26;54.68;101858.75;5057693;28;45363;-75
2023/06/05 07:56:16;;;;;;;;;16.67;12.67;;;;;19.42;54.71;101859.84;5057945;28;45482;-75
2023/06/05 07:58:42;;;;;;;;;13.67;11.33;;;;;19.47;54.80;101860.53;5058239;28;45290;-76
2023/06/05 08:01:08;;;;;;;;;16.33;13.33;;;;;19.46;53.84;101858.78;5057502;28;45561;-76
2023/06/05 08:03:33;;;;;;;;;16.67;12.33;;;;;19.46;54.04;101853.44;5057554;28;45195;-76
2023/06/05 08:05:59;;;;;;;;;13.67;13.67;;;;;19.54;53.60;101866.44;5057868;28;45382;-75
2023/06/05 08:08:25;;;;;;;;;21.67;12.67;;;;;19.45;53.58;101858.84;5057563;28;45408;-76
2023/06/05 08:10:51;;;;;;;;;13.33;12.33;;;;;19.49;53.82;101855.97;5057555;28;46333;-75
2023/06/05 08:13:16;;;;;;;;;13.67;10.67;;;;;20.20;52.73;101862.75;5057199;28;45797;-76
2023/06/05 08:15:42;;;;;;;;;13.67;12.67;;;;;20.16;52.14;101848.63;5057472;28;45327;-75
2023/06/05 08:18:08;;;;;;;;;17.33;14.67;;;;;20.13;52.23;101853.25;5071908;28;45430;-75
2023/06/05 08:20:33;;;;;;;;;14.33;13.67;;;;;19.99;52.32;101843.16;5064840;27;46431;-75
2023/06/05 08:22:59;;;;;;;;;16.00;13.00;;;;;19.90;52.34;101846.25;5057444;28;45314;-76
2023/06/05 08:25:24;;;;;;;;;18.33;13.33;;;;;19.94;52.15;101851.41;5057188;28;45278;-75
2023/06/05 08:27:50;;;;;;;;;23.67;17.67;;;;;20.69;51.89;101846.22;5063865;28;45486;-75
2023/06/05 08:30:16;;;;;;;;;13.00;11.00;;;;;22.07;48.71;101842.84;5064047;27;45337;-76
2023/06/05 08:32:43;;;;;;;;;12.00;12.00;;;;;22.40;47.04;101824.06;5057057;28;45447;-75
2023/06/05 08:35:09;;;;;;;;;14.33;13.00;;;;;22.37;46.57;101842.19;5069444;28;45333;-75
2023/06/05 08:37:35;;;;;;;;;17.33;13.00;;;;;21.99;47.48;101834.38;5057093;28;45561;-75
2023/06/05 08:40:06;;;;;;;;;16.67;15.67;;;;;21.77;48.10;101829.25;5056897;28;46298;-75
2023/06/05 08:42:31;;;;;;;;;12.67;11.00;;;;;21.61;48.34;101835.44;5057881;28;45311;-76
2023/06/05 08:44:57;;;;;;;;;16.00;14.33;;;;;21.63;48.15;101832.69;5080640;27;45260;-75
2023/06/05 08:47:27;;;;;;;;;15.00;14.00;;;;;21.63;48.43;101840.72;5081215;27;45155;-76
2023/06/05 08:49:54;;;;;;;;;12.67;10.67;;;;;21.48;48.68;101835.19;5080826;28;45449;-76
2023/06/05 08:52:22;;;;;;;;;17.00;14.33;;;;;21.32;48.52;101826.16;5080655;27;45446;-75
2023/06/05 08:54:47;;;;;;;;;19.67;18.00;;;;;21.19;49.01;101831.31;5080775;27;45325;-76
2023/06/05 08:57:13;;;;;;;;;12.67;11.67;;;;;21.30;48.84;101818.22;5081165;27;45316;-76
2023/06/05 08:59:40;;;;;;;;;18.00;15.67;;;;;21.61;48.36;101829.19;5080540;27;46335;-75
2023/06/05 09:02:05;;;;;;;;;13.67;11.33;;;;;21.72;48.10;101829.50;5080076;28;45459;-77
2023/06/05 09:04:31;;;;;;;;;14.33;12.67;;;;;21.83;47.67;101824.47;5080388;27;45446;-76
2023/06/05 09:06:57;;;;;;;;;10.67;10.67;;;;;21.73;47.46;101826.75;5075283;27;45447;-76
2023/06/05 09:09:23;;;;;;;;;17.67;12.33;;;;;21.72;47.75;101830.38;5069241;28;46368;-75
2023/06/05 09:12:02;;;;;;;;;11.00;9.33;;;;;21.62;47.90;101831.81;5078793;27;46338;-76
2023/06/05 09:14:27;;;;;;;;;12.00;11.00;;;;;21.65;47.91;101818.22;5080155;27;45399;-76
2023/06/05 09:16:53;;;;;;;;;14.00;14.00;;;;;22.01;47.19;101819.06;5080761;27;45166;-75
2023/06/05 09:19:24;;;;;;;;;13.67;11.67;;;;;22.14;47.29;101808.53;5080248;27;46223;-76
2023/06/05 09:21:54;;;;;;;;;14.33;12.67;;;;;22.12;46.81;101813.97;5080429;27;45286;-75
2023/06/05 09:24:23;;;;;;;;;15.67;10.67;;;;;22.31;46.52;101821.03;5080305;27;45453;-75
2023/06/05 09:26:52;;;;;;;;;14.33;13.33;;;;;22.64;46.34;101828.16;5079452;27;45203;-75
2023/06/05 09:29:27;;;;;;;;;17.00;12.00;;;;;22.59;45.63;101810.50;5073414;28;45437;-74
2023/06/05 09:31:55;;;;;;;;;12.67;11.00;;;;;22.74;45.87;101824.00;5070144;28;45453;-76
2023/06/05 09:34:26;;;;;;;;;14.00;12.00;;;;;23.03;45.54;101811.56;5077920;28;45316;-74
2023/06/05 09:36:51;;;;;;;;;10.00;9.00;;;;;23.71;45.48;101806.69;5077005;27;45846;-76
2023/06/05 09:39:19;;;;;;;;;13.00;11.67;;;;;24.88;42.60;101814.59;5079548;27;46032;-75
2023/06/05 09:41:46;;;;;;;;;15.33;12.33;;;;;26.36;41.07;101809.81;5079127;28;45456;-75
2023/06/05 09:44:12;;;;;;;;;15.33;13.33;;;;;28.35;38.25;101809.94;5061540;27;45341;-75
2023/06/05 09:47:10;;;;;;;;;12.33;11.67;;;;;31.02;36.87;101820.34;5071973;28;45498;-74
2023/06/05 09:49:41;;;;;;;;;12.67;11.33;;;;;32.90;32.02;101820.41;5053754;28;46325;-74
2023/06/05 09:52:11;;;;;;;;;10.00;10.00;;;;;34.48;29.62;101809.50;5036907;28;45364;-75
2023/06/05 09:54:38;;;;;;;;;12.00;12.00;;;;;35.98;29.21;101812.03;5019070;28;45476;-76
2023/06/05 09:57:05;;;;;;;;;14.00;12.00;;;;;37.38;25.50;101813.91;5047035;28;45468;-77
2023/06/05 09:59:33;;;;;;;;;15.33;12.00;;;;;38.35;24.05;101796.47;5055890;28;45571;-74
2023/06/05 10:02:07;;;;;;;;;15.00;12.00;;;;;39.26;22.85;101811.59;5051534;28;45468;-75
2023/06/05 10:04:58;;;;;;;;;10.00;10.00;;;;;40.32;23.62;101813.28;5057236;28;45481;-76
2023/06/05 10:07:24;;;;;;;;;13.33;13.33;;;;;41.28;22.62;101814.94;4976862;28;45579;-75
2023/06/05 10:09:53;;;;;;;;;12.00;11.33;;;;;41.93;21.54;101787.38;4975394;28;46513;-77
2023/06/05 10:12:20;;;;;;;;;14.67;12.00;;;;;42.71;20.20;101807.63;4976260;28;45604;-76
2023/06/05 10:14:47;;;;;;;;;12.67;11.33;;;;;43.02;20.59;101821.69;4976038;28;45368;-76
2023/06/05 10:17:13;;;;;;;;;12.25;12.25;;;;;43.43;19.34;101809.22;4977411;28;45394;-76
2023/06/05 10:19:43;;;;;;;;;11.75;11.00;;;;;43.87;21.25;101809.16;4977320;28;45416;-79
2023/06/05 10:22:12;;;;;;;;;11.50;9.50;;;;;44.07;19.86;101806.13;4977239;28;45509;-76
2023/06/05 10:24:44;;;;;;;;;12.25;12.25;;;;;44.17;18.00;101796.16;4982412;28;45733;-78
2023/06/05 10:27:12;;;;;;;;;10.25;10.25;;;;;44.26;16.93;101807.81;4996998;28;45390;-77
2023/06/05 10:29:43;;;;;;;;;12.00;11.00;;;;;44.38;17.65;101802.28;4993665;28;47561;-77
2023/06/05 10:32:23;;;;;;;;;12.25;11.75;;;;;44.38;19.32;101773.69;4996582;28;45520;-77
2023/06/05 10:35:22;;;;;;;;;7.75;7.75;;;;;44.88;20.37;101803.91;4995832;28;45699;-76
2023/06/05 10:37:54;;;;;;;;;9.50;9.25;;;;;44.48;17.50;101798.94;4996763;28;45640;-76
2023/06/05 10:40:20;;;;;;;;;8.75;8.50;;;;;44.43;17.74;101798.78;4996242;28;46211;-75
2023/06/05 10:42:46;;;;;;;;;11.25;11.00;;;;;44.08;17.65;101802.25;4995721;28;45500;-77
2023/06/05 10:45:11;;;;;;;;;9.75;9.75;;;;;44.06;17.45;101793.34;5062991;28;45250;-76
2023/06/05 10:47:36;;;;;;;;;10.50;9.25;;;;;44.09;17.22;101796.47;5078480;27;45415;-77
2023/06/05 10:50:20;;;;;;;;;8.75;8.75;;;;;44.02;17.58;101787.38;5078810;27;46219;-76
2023/06/05 10:52:49;;;;;;;;;8.50;8.50;;;;;43.95;17.49;101781.06;5071826;28;45450;-76
2023/06/05 10:55:15;;;;;;;;;9.00;9.00;;;;;43.56;17.62;101780.47;5058713;28;45397;-76
2023/06/05 10:58:08;;;;;;;;;9.00;9.00;;;;;42.95;17.93;101785.72;5076021;28;45355;-76
2023/06/05 11:00:34;;;;;;;;;5.50;5.50;;;;;41.96;17.57;101790.75;5058310;28;45341;-77
2023/06/05 11:03:00;;;;;;;;;10.75;10.25;;;;;40.89;18.39;101780.69;5058160;28;45423;-78
2023/06/05 11:05:26;;;;;;;;;15.00;11.00;;;;;39.69;18.86;101784.75;5058046;28;45364;-76
2023/06/05 11:08:09;;;;;;;;;11.00;9.00;;;;;38.51;20.09;101767.84;5061343;28;45618;-76
2023/06/05 11:10:35;;;;;;;;;7.50;7.00;;;;;37.28;20.39;101740.88;5078119;28;45304;-76
2023/06/05 11:13:01;;;;;;;;;7.00;7.00;;;;;36.27;20.85;101758.44;5077028;27;45527;-76